Time;durP1;ratioP1;P1;durP2;ratioP2;P2;SDS_P1;SDS_P2;PMS_P1;PMS_P2;Temp;Humidity;BMP_temperature;BMP_pressure;BME280_temperature;BME280_humidity;BME280_pressure;Samples;Min_cycle;Max_cycle;Signal;HPM_P1;HPM_P2
2023/01/19 00:01:35;;;;;;;;;;;;;;;;;;5038964;28;20438;-67
2023/01/19 00:04:01;;;;;;;;;;;;;;;;;;5028683;28;20554;-66
2023/01/19 00:06:26;;;;;;;;;;;;;;;;;;5034829;28;20515;-65
2023/01/19 00:08:52;;;;;;;;;;;;;;;;;;5041097;28;20293;-66
2023/01/19 00:11:18;;;;;;;;;;;;;;;;;;5039170;28;19930;-68
2023/01/19 00:13:48;;;;;;;;;;;;;;;;;;5030772;28;19975;-68
2023/01/19 00:16:16;;;;;;;;;;;;;;;;;;5033077;28;19939;-66
2023/01/19 00:18:42;;;;;;;;;;;;;;;;;;5029518;28;20131;-67
2023/01/19 00:21:07;;;;;;;;;;;;;;;;;;5043490;28;19920;-66
2023/01/19 00:23:33;;;;;;;;;;;;;;;;;;5051032;28;19969;-68
2023/01/19 00:25:59;;;;;;;;;;;;;;;;;;5033342;28;19921;-68
2023/01/19 00:28:25;;;;;;;;;;;;;;;;;;5023861;28;20353;-65
2023/01/19 00:30:51;;;;;;;;;;;;;;;;;;5030460;28;19923;-67
2023/01/19 00:33:17;;;;;;;;;;;;;;;;;;5006995;28;19946;-67
2023/01/19 00:35:43;;;;;;;;;;;;;;;;;;5029055;28;19924;-66
2023/01/19 00:38:08;;;;;;;;;;;;;;;;;;5026152;28;19935;-66
2023/01/19 00:40:34;;;;;;;;;;;;;;;;;;5034298;28;19932;-66
2023/01/19 00:43:01;;;;;;;;;;;;;;;;;;5035288;28;19924;-66
2023/01/19 00:45:27;;;;;;;;;;;;;;;;;;5035335;28;19931;-67
2023/01/19 00:47:55;;;;;;;;;;;;;;;;;;5016539;28;19924;-69
2023/01/19 00:50:21;;;;;;;;;;;;;;;;;;5029732;28;19924;-65
2023/01/19 00:52:47;;;;;;;;;;;;;;;;;;5032826;28;20209;-65
2023/01/19 00:55:13;;;;;;;;;;;;;;;;;;5038758;28;19924;-66
2023/01/19 00:57:39;;;;;;;;;;;;;;;;;;5016099;28;20003;-64
2023/01/19 01:00:08;;;;;;;;;;;;;;;;;;5023630;28;19921;-67
2023/01/19 01:02:34;;;;;;;;;;;;;;;;;;5036222;28;19969;-65
2023/01/19 01:05:01;;;;;;;;;;;;;;;;;;5027626;28;20697;-65
2023/01/19 01:07:27;;;;;;;;;;;;;;;;;;5035552;28;20349;-67
2023/01/19 01:09:53;;;;;;;;;;;;;;;;;;5037316;28;19960;-65
2023/01/19 01:12:19;;;;;;;;;;;;;;;;;;5041627;28;20660;-67
2023/01/19 01:14:45;;;;;;;;;;;;;;;;;;5029882;28;20001;-68
2023/01/19 01:17:13;;;;;;;;;;;;;;;;;;5039630;28;20294;-67
2023/01/19 01:19:39;;;;;;;;;;;;;;;;;;5034224;28;19924;-65
2023/01/19 01:22:04;;;;;;;;;;;;;;;;;;5027643;28;20181;-66
2023/01/19 01:24:30;;;;;;;;;;;;;;;;;;5052137;28;20411;-68
2023/01/19 01:26:56;;;;;;;;;;;;;;;;;;5040485;28;19924;-67
2023/01/19 01:29:22;;;;;;;;;;;;;;;;;;5050274;28;19927;-67
2023/01/19 01:31:48;;;;;;;;;;;;;;;;;;5049623;28;19963;-67
2023/01/19 01:34:16;;;;;;;;;;;;;;;;;;5047850;28;21313;-65
2023/01/19 01:36:42;;;;;;;;;;;;;;;;;;5054059;28;20452;-64
2023/01/19 01:39:08;;;;;;;;;;;;;;;;;;5051263;28;19921;-67
2023/01/19 01:41:33;;;;;;;;;;;;;;;;;;5046748;28;19924;-66
2023/01/19 01:44:00;;;;;;;;;;;;;;;;;;5048785;28;19977;-66
2023/01/19 01:46:26;;;;;;;;;;;;;;;;;;5041950;28;20801;-67
2023/01/19 01:48:52;;;;;;;;;;;;;;;;;;5048117;28;19971;-68
2023/01/19 01:51:24;;;;;;;;;;;;;;;;;;5052553;28;19931;-66
2023/01/19 01:53:50;;;;;;;;;;;;;;;;;;5048426;28;19928;-66
2023/01/19 01:56:16;;;;;;;;;;;;;;;;;;5049116;28;19932;-65
2023/01/19 01:58:42;;;;;;;;;;;;;;;;;;5037453;28;20277;-68
2023/01/19 02:03:52;;;;;;;;;;;;;;;;;;5030869;28;20016;-67
2023/01/19 02:06:18;;;;;;;;;;;;;;;;;;5025651;28;19920;-69
2023/01/19 02:14:14;;;;;;;;;;;;;;;;;;5045821;28;19978;-65
2023/01/19 02:16:40;;;;;;;;;;;;;;;;;;5038445;28;19920;-67
2023/01/19 02:19:06;;;;;;;;;;;;;;;;;;5047955;28;20954;-64
2023/01/19 02:21:32;;;;;;;;;;;;;;;;;;5044118;28;20318;-68
2023/01/19 02:23:59;;;;;;;;;;;;;;;;;;5040806;28;20012;-68
2023/01/19 02:26:24;;;;;;;;;;;;;;;;;;5046864;28;19924;-67
2023/01/19 02:28:50;;;;;;;;;;;;;;;;;;5043262;28;19924;-64
2023/01/19 02:31:16;;;;;;;;;;;;;;;;;;5035488;28;19928;-66
2023/01/19 02:33:42;;;;;;;;;;;;;;;;;;5041921;28;20448;-65
2023/01/19 02:36:08;;;;;;;;;;;;;;;;;;5044947;28;20580;-66
2023/01/19 02:38:34;;;;;;;;;;;;;;;;;;5046641;28;19935;-67
2023/01/19 02:41:00;;;;;;;;;;;;;;;;;;5042779;28;20112;-65
2023/01/19 02:43:26;;;;;;;;;;;;;;;;;;5044379;28;19927;-68
2023/01/19 02:45:51;;;;;;;;;;;;;;;;;;5043994;28;20482;-68
2023/01/19 02:48:17;;;;;;;;;;;;;;;;;;5044698;28;19955;-68
2023/01/19 02:50:48;;;;;;;;;;;;;;;;;;5045016;28;19931;-68
2023/01/19 02:53:14;;;;;;;;;;;;;;;;;;5053902;28;20035;-68
2023/01/19 02:55:40;;;;;;;;;;;;;;;;;;5051717;28;20033;-66
2023/01/19 02:58:06;;;;;;;;;;;;;;;;;;5028506;28;19928;-65
2023/01/19 03:00:32;;;;;;;;;;;;;;;;;;5040819;28;20011;-67
2023/01/19 03:02:58;;;;;;;;;;;;;;;;;;5048507;28;20042;-68
2023/01/19 03:05:24;;;;;;;;;;;;;;;;;;5019494;28;19936;-66
2023/01/19 03:07:51;;;;;;;;;;;;;;;;;;5047291;28;19924;-68
2023/01/19 03:10:16;;;;;;;;;;;;;;;;;;5053629;28;19977;-65
2023/01/19 03:12:42;;;;;;;;;;;;;;;;;;5035876;28;19923;-66
2023/01/19 03:15:08;;;;;;;;;;;;;;;;;;5032103;28;19924;-65
2023/01/19 03:17:34;;;;;;;;;;;;;;;;;;5040990;28;19925;-66
2023/01/19 03:20:00;;;;;;;;;;;;;;;;;;5037464;28;19920;-67
2023/01/19 03:22:26;;;;;;;;;;;;;;;;;;5033076;28;20017;-65
2023/01/19 03:24:52;;;;;;;;;;;;;;;;;;5041624;28;20002;-66
2023/01/19 03:27:18;;;;;;;;;;;;;;;;;;5019654;28;20788;-67
2023/01/19 03:29:44;;;;;;;;;;;;;;;;;;5027208;28;19945;-67
2023/01/19 03:32:10;;;;;;;;;;;;;;;;;;5047056;28;19924;-68
2023/01/19 03:34:36;;;;;;;;;;;;;;;;;;5055277;28;19934;-68
2023/01/19 03:37:02;;;;;;;;;;;;;;;;;;5046121;28;19920;-67
2023/01/19 03:39:28;;;;;;;;;;;;;;;;;;5054247;27;19924;-65
2023/01/19 03:41:53;;;;;;;;;;;;;;;;;;5055009;28;20449;-65
2023/01/19 03:44:19;;;;;;;;;;;;;;;;;;5057726;28;19924;-67
2023/01/19 03:46:45;;;;;;;;;;;;;;;;;;5051748;28;19928;-65
2023/01/19 03:49:11;;;;;;;;;;;;;;;;;;5053544;28;19931;-68
2023/01/19 03:51:37;;;;;;;;;;;;;;;;;;5057797;28;19950;-67
2023/01/19 03:54:04;;;;;;;;;;;;;;;;;;5057025;28;19925;-67
2023/01/19 03:56:30;;;;;;;;;;;;;;;;;;5036857;28;19935;-67
2023/01/19 03:58:56;;;;;;;;;;;;;;;;;;5038295;28;19920;-68
2023/01/19 04:01:22;;;;;;;;;;;;;;;;;;5031626;28;19924;-66
2023/01/19 04:03:47;;;;;;;;;;;;;;;;;;5037747;28;19926;-66
2023/01/19 04:06:13;;;;;;;;;;;;;;;;;;5033724;28;19931;-68
2023/01/19 04:08:39;;;;;;;;;;;;;;;;;;5031296;28;20378;-68
2023/01/19 04:11:07;;;;;;;;;;;;;;;;;;5034805;28;19967;-65
2023/01/19 04:13:32;;;;;;;;;;;;;;;;;;5041444;28;19935;-67
2023/01/19 04:15:58;;;;;;;;;;;;;;;;;;5040784;27;20425;-65
2023/01/19 04:18:25;;;;;;;;;;;;;;;;;;5041890;28;19928;-67
2023/01/19 04:20:50;;;;;;;;;;;;;;;;;;5027357;28;19924;-68
2023/01/19 04:23:16;;;;;;;;;;;;;;;;;;5040176;28;19931;-67
2023/01/19 04:25:42;;;;;;;;;;;;;;;;;;5039297;28;20515;-66
2023/01/19 04:28:08;;;;;;;;;;;;;;;;;;5033596;28;20045;-67
2023/01/19 04:30:34;;;;;;;;;;;;;;;;;;5041511;28;19924;-67
2023/01/19 04:33:00;;;;;;;;;;;;;;;;;;5045663;28;19935;-68
2023/01/19 04:35:26;;;;;;;;;;;;;;;;;;5048791;28;19920;-68
2023/01/19 04:37:51;;;;;;;;;;;;;;;;;;5040871;28;19924;-68
2023/01/19 04:40:17;;;;;;;;;;;;;;;;;;5041889;28;19924;-66
2023/01/19 04:42:44;;;;;;;;;;;;;;;;;;5051148;27;20058;-66
2023/01/19 04:45:10;;;;;;;;;;;;;;;;;;5048956;28;19962;-66
2023/01/19 04:47:36;;;;;;;;;;;;;;;;;;5027775;28;20030;-68
2023/01/19 04:50:01;;;;;;;;;;;;;;;;;;5024177;28;19947;-65
2023/01/19 04:52:33;;;;;;;;;;;;;;;;;;5026907;28;20382;-65
2023/01/19 04:54:59;;;;;;;;;;;;;;;;;;5039223;28;19978;-67
2023/01/19 04:57:25;;;;;;;;;;;;;;;;;;5051808;28;19924;-67
2023/01/19 04:59:51;;;;;;;;;;;;;;;;;;5045379;28;20837;-67
2023/01/19 05:02:17;;;;;;;;;;;;;;;;;;5040722;28;19927;-66
2023/01/19 05:04:42;;;;;;;;;;;;;;;;;;5045641;28;19924;-65
2023/01/19 05:07:09;;;;;;;;;;;;;;;;;;5031121;28;19931;-68
2023/01/19 05:09:35;;;;;;;;;;;;;;;;;;5029445;28;19928;-65
2023/01/19 05:12:00;;;;;;;;;;;;;;;;;;5042145;28;19931;-68
2023/01/19 05:14:26;;;;;;;;;;;;;;;;;;5025886;28;19931;-67
2023/01/19 05:16:52;;;;;;;;;;;;;;;;;;5048843;28;20345;-66
2023/01/19 05:19:18;;;;;;;;;;;;;;;;;;5013028;27;19962;-66
2023/01/19 05:21:44;;;;;;;;;;;;;;;;;;5033076;28;19929;-66
2023/01/19 05:24:10;;;;;;;;;;;;;;;;;;5031823;28;19925;-68
2023/01/19 05:26:36;;;;;;;;;;;;;;;;;;5022037;28;20344;-69
2023/01/19 05:29:02;;;;;;;;;;;;;;;;;;5016691;28;20511;-67
2023/01/19 05:31:28;;;;;;;;;;;;;;;;;;5030477;27;19976;-66
2023/01/19 05:33:53;;;;;;;;;;;;;;;;;;5038589;28;20106;-68
2023/01/19 05:36:19;;;;;;;;;;;;;;;;;;5026829;28;20614;-64
2023/01/19 05:38:45;;;;;;;;;;;;;;;;;;5041403;28;20035;-68
2023/01/19 05:41:11;;;;;;;;;;;;;;;;;;5051447;28;20021;-68
2023/01/19 05:43:37;;;;;;;;;;;;;;;;;;5052054;28;19932;-69
2023/01/19 05:46:03;;;;;;;;;;;;;;;;;;5034232;28;19925;-67
2023/01/19 05:51:15;;;;;;;;;;;;;;;;;;5002857;28;20323;-68
2023/01/19 05:53:41;;;;;;;;;;;;;;;;;;5046456;27;20180;-68
2023/01/19 05:56:07;;;;;;;;;;;;;;;;;;5037367;28;20021;-70
2023/01/19 05:58:34;;;;;;;;;;;;;;;;;;5033963;28;20823;-69
2023/01/19 06:01:00;;;;;;;;;;;;;;;;;;5023413;28;20921;-68
2023/01/19 06:03:25;;;;;;;;;;;;;;;;;;5024265;28;20447;-68
2023/01/19 06:05:51;;;;;;;;;;;;;;;;;;4995736;28;20289;-68
2023/01/19 06:08:17;;;;;;;;;;;;;;;;;;5011907;28;19924;-67
2023/01/19 06:10:43;;;;;;;;;;;;;;;;;;5008545;28;19925;-65
2023/01/19 06:13:10;;;;;;;;;;;;;;;;;;5040009;28;19928;-66
2023/01/19 06:15:36;;;;;;;;;;;;;;;;;;5027383;28;19943;-65
2023/01/19 06:18:02;;;;;;;;;;;;;;;;;;5018896;28;19959;-66
2023/01/19 06:20:28;;;;;;;;;;;;;;;;;;5028786;28;20293;-67
2023/01/19 06:22:53;;;;;;;;;;;;;;;;;;5029534;28;19979;-69
2023/01/19 06:25:19;;;;;;;;;;;;;;;;;;5038213;28;24503;-68
2023/01/19 06:27:45;;;;;;;;;;;;;;;;;;5045506;28;19924;-67
2023/01/19 06:30:11;;;;;;;;;;;;;;;;;;5041226;27;21876;-68
2023/01/19 06:32:37;;;;;;;;;;;;;;;;;;5052391;28;19928;-65
2023/01/19 06:35:03;;;;;;;;;;;;;;;;;;5025982;28;19924;-68
2023/01/19 06:37:30;;;;;;;;;;;;;;;;;;5044640;28;20439;-68
2023/01/19 06:39:56;;;;;;;;;;;;;;;;;;5056334;28;19975;-67
2023/01/19 06:42:22;;;;;;;;;;;;;;;;;;5042728;28;20007;-70
2023/01/19 06:44:48;;;;;;;;;;;;;;;;;;5041790;28;19920;-68
2023/01/19 06:47:14;;;;;;;;;;;;;;;;;;5041844;28;19920;-66
2023/01/19 06:49:39;;;;;;;;;;;;;;;;;;5045938;28;20400;-69
2023/01/19 06:52:05;;;;;;;;;;;;;;;;;;5053389;28;19971;-68
2023/01/19 06:54:31;;;;;;;;;;;;;;;;;;5034918;28;19928;-67
2023/01/19 06:56:57;;;;;;;;;;;;;;;;;;5048809;28;19978;-69
2023/01/19 06:59:24;;;;;;;;;;;;;;;;;;5038235;28;19916;-68
2023/01/19 07:01:50;;;;;;;;;;;;;;;;;;5040749;28;19925;-68
2023/01/19 07:04:16;;;;;;;;;;;;;;;;;;5026522;28;20310;-70
2023/01/19 07:06:41;;;;;;;;;;;;;;;;;;5050968;28;19938;-69
2023/01/19 07:09:10;;;;;;;;;;;;;;;;;;5054324;28;19967;-69
2023/01/19 07:11:36;;;;;;;;;;;;;;;;;;5054658;28;19936;-68
2023/01/19 07:14:02;;;;;;;;;;;;;;;;;;5053614;28;20492;-67
2023/01/19 07:16:28;;;;;;;;;;;;;;;;;;5048172;28;19931;-68
2023/01/19 07:18:54;;;;;;;;;;;;;;;;;;5048466;28;19924;-67
2023/01/19 07:21:20;;;;;;;;;;;;;;;;;;5049144;28;19969;-67
2023/01/19 07:23:46;;;;;;;;;;;;;;;;;;5038026;28;20011;-68
2023/01/19 07:26:14;;;;;;;;;;;;;;;;;;5035637;28;20163;-68
2023/01/19 07:28:40;;;;;;;;;;;;;;;;;;5054290;28;19924;-66
2023/01/19 07:31:06;;;;;;;;;;;;;;;;;;5053368;28;19931;-67
2023/01/19 07:33:32;;;;;;;;;;;;;;;;;;5043733;28;20471;-69
2023/01/19 07:35:58;;;;;;;;;;;;;;;;;;5051834;28;20260;-68
2023/01/19 07:38:24;;;;;;;;;;;;;;;;;;5044916;28;19973;-69
2023/01/19 07:40:49;;;;;;;;;;;;;;;;;;5039979;28;19924;-67
2023/01/19 07:43:15;;;;;;;;;;;;;;;;;;5050255;28;20066;-69
2023/01/19 07:45:41;;;;;;;;;;;;;;;;;;5054088;28;19931;-70
2023/01/19 07:48:07;;;;;;;;;;;;;;;;;;5044081;28;20335;-66
2023/01/19 07:50:33;;;;;;;;;;;;;;;;;;5055935;28;20417;-67
2023/01/19 07:52:59;;;;;;;;;;;;;;;;;;5046176;28;19967;-69
2023/01/19 07:55:25;;;;;;;;;;;;;;;;;;5052640;28;20461;-70
2023/01/19 07:57:51;;;;;;;;;;;;;;;;;;5028553;28;19924;-65
2023/01/19 08:00:19;;;;;;;;;;;;;;;;;;5039100;28;20003;-66
2023/01/19 08:02:48;;;;;;;;;;;;;;;;;;5053927;28;19928;-66
2023/01/19 08:05:14;;;;;;;;;;;;;;;;;;5053520;28;19931;-68
2023/01/19 08:07:40;;;;;;;;;;;;;;;;;;5044849;28;20360;-64
2023/01/19 08:10:06;;;;;;;;;;;;;;;;;;5047886;28;19924;-68
2023/01/19 08:12:32;;;;;;;;;;;;;;;;;;5038377;28;19926;-67
2023/01/19 08:14:57;;;;;;;;;;;;;;;;;;5048000;28;19931;-66
2023/01/19 08:17:23;;;;;;;;;;;;;;;;;;5048129;28;19954;-65
2023/01/19 08:19:49;;;;;;;;;;;;;;;;;;5053624;28;20403;-66
2023/01/19 08:22:15;;;;;;;;;;;;;;;;;;5052195;28;20334;-65
2023/01/19 08:24:41;;;;;;;;;;;;;;;;;;5054181;28;19931;-66
2023/01/19 08:27:08;;;;;;;;;;;;;;;;;;5049009;28;19924;-67
2023/01/19 08:29:34;;;;;;;;;;;;;;;;;;5046797;28;19931;-66
2023/01/19 08:32:01;;;;;;;;;;;;;;;;;;5038530;28;19929;-68
2023/01/19 08:34:29;;;;;;;;;;;;;;;;;;5046202;28;20049;-67
2023/01/19 08:36:54;;;;;;;;;;;;;;;;;;5033984;28;19924;-67
2023/01/19 08:39:22;;;;;;;;;;;;;;;;;;5038637;28;20047;-67
2023/01/19 08:41:48;;;;;;;;;;;;;;;;;;5046136;28;20377;-66
2023/01/19 08:44:14;;;;;;;;;;;;;;;;;;5053722;28;19931;-67
2023/01/19 08:46:40;;;;;;;;;;;;;;;;;;5053342;28;19947;-67
2023/01/19 08:49:06;;;;;;;;;;;;;;;;;;5036248;28;19920;-68
2023/01/19 08:51:32;;;;;;;;;;;;;;;;;;5043940;28;20230;-69
2023/01/19 08:53:58;;;;;;;;;;;;;;;;;;5052197;28;20022;-67
2023/01/19 08:56:24;;;;;;;;;;;;;;;;;;5053588;28;20252;-67
2023/01/19 08:58:49;;;;;;;;;;;;;;;;;;5047045;28;19928;-65
2023/01/19 09:01:15;;;;;;;;;;;;;;;;;;5044134;28;19921;-67
2023/01/19 09:03:41;;;;;;;;;;;;;;;;;;5046493;28;19924;-68
2023/01/19 09:06:07;;;;;;;;;;;;;;;;;;5051713;28;19924;-69
2023/01/19 09:08:33;;;;;;;;;;;;;;;;;;5055768;28;20030;-69
2023/01/19 09:10:59;;;;;;;;;;;;;;;;;;5043264;28;20011;-67
2023/01/19 09:13:25;;;;;;;;;;;;;;;;;;5044791;28;19950;-67
2023/01/19 09:15:51;;;;;;;;;;;;;;;;;;5048641;28;20372;-66
2023/01/19 09:18:17;;;;;;;;;;;;;;;;;;5054780;28;21019;-67
2023/01/19 09:20:43;;;;;;;;;;;;;;;;;;5048726;28;19924;-65
2023/01/19 09:23:12;;;;;;;;;;;;;;;;;;5035950;28;20398;-67
2023/01/19 09:25:38;;;;;;;;;;;;;;;;;;5033768;28;20031;-67
2023/01/19 09:28:04;;;;;;;;;;;;;;;;;;5051661;28;19935;-67
2023/01/19 09:30:31;;;;;;;;;;;;;;;;;;5049505;28;19924;-67
2023/01/19 09:32:57;;;;;;;;;;;;;;;;;;5050961;28;19928;-66
2023/01/19 09:35:23;;;;;;;;;;;;;;;;;;5060399;28;19916;-70
2023/01/19 09:37:49;;;;;;;;;;;;;;;;;;5046783;28;20407;-68
2023/01/19 09:40:15;;;;;;;;;;;;;;;;;;5053540;28;19950;-68
2023/01/19 09:42:42;;;;;;;;;;;;;;;;;;5049512;28;19967;-68
2023/01/19 09:45:08;;;;;;;;;;;;;;;;;;5048424;28;19920;-69
2023/01/19 09:47:34;;;;;;;;;;;;;;;;;;5052819;28;19947;-68
2023/01/19 09:50:00;;;;;;;;;;;;;;;;;;5054951;28;19927;-68
2023/01/19 09:52:25;;;;;;;;;;;;;;;;;;5057772;28;19965;-69
2023/01/19 09:54:51;;;;;;;;;;;;;;;;;;5049721;28;20193;-70
2023/01/19 09:57:17;;;;;;;;;;;;;;;;;;5057482;28;19924;-69
2023/01/19 09:59:46;;;;;;;;;;;;;;;;;;5051069;28;20389;-67
2023/01/19 10:02:12;;;;;;;;;;;;;;;;;;5052311;28;20388;-69
2023/01/19 10:04:38;;;;;;;;;;;;;;;;;;5054352;28;19924;-66
2023/01/19 10:07:04;;;;;;;;;;;;;;;;;;5048671;28;20546;-67
2023/01/19 10:09:30;;;;;;;;;;;;;;;;;;5034977;28;19925;-70
2023/01/19 10:11:56;;;;;;;;;;;;;;;;;;5047785;28;20530;-68
2023/01/19 10:14:21;;;;;;;;;;;;;;;;;;5056158;28;20555;-69
2023/01/19 10:16:47;;;;;;;;;;;;;;;;;;5040314;28;21986;-69
2023/01/19 10:19:13;;;;;;;;;;;;;;;;;;5053035;28;19920;-67
2023/01/19 10:21:39;;;;;;;;;;;;;;;;;;5057028;28;19967;-66
2023/01/19 10:24:05;;;;;;;;;;;;;;;;;;5036368;28;19920;-66
2023/01/19 10:26:32;;;;;;;;;;;;;;;;;;5055518;28;20428;-69
2023/01/19 10:28:58;;;;;;;;;;;;;;;;;;5028874;28;20010;-69
2023/01/19 10:31:24;;;;;;;;;;;;;;;;;;5020504;28;20529;-67
2023/01/19 10:33:51;;;;;;;;;;;;;;;;;;5032629;28;19928;-69
2023/01/19 10:36:17;;;;;;;;;;;;;;;;;;5045272;28;19927;-68
2023/01/19 10:38:42;;;;;;;;;;;;;;;;;;5051567;28;19924;-69
2023/01/19 10:41:08;;;;;;;;;;;;;;;;;;5056214;28;20404;-69
2023/01/19 10:43:34;;;;;;;;;;;;;;;;;;5058475;28;19963;-69
2023/01/19 10:46:00;;;;;;;;;;;;;;;;;;5055732;28;19924;-66
2023/01/19 10:48:26;;;;;;;;;;;;;;;;;;5028539;28;19940;-67
2023/01/19 10:50:52;;;;;;;;;;;;;;;;;;5052595;28;20502;-68
2023/01/19 10:53:18;;;;;;;;;;;;;;;;;;5057436;28;19924;-69
2023/01/19 10:55:44;;;;;;;;;;;;;;;;;;5058361;28;19920;-69
2023/01/19 10:58:10;;;;;;;;;;;;;;;;;;5054002;28;20473;-68
2023/01/19 11:00:36;;;;;;;;;;;;;;;;;;5055596;28;19928;-67
2023/01/19 11:03:02;;;;;;;;;;;;;;;;;;5043836;28;19925;-66
2023/01/19 11:05:28;;;;;;;;;;;;;;;;;;5055953;28;19924;-68
2023/01/19 11:07:55;;;;;;;;;;;;;;;;;;5052711;28;19920;-69
2023/01/19 11:10:21;;;;;;;;;;;;;;;;;;5051348;28;19920;-69
2023/01/19 11:12:47;;;;;;;;;;;;;;;;;;5052941;28;19924;-67
2023/01/19 11:15:13;;;;;;;;;;;;;;;;;;5053766;28;19936;-68
2023/01/19 11:17:38;;;;;;;;;;;;;;;;;;5050112;28;20367;-67
2023/01/19 11:20:04;;;;;;;;;;;;;;;;;;5036720;28;19986;-67
2023/01/19 11:22:31;;;;;;;;;;;;;;;;;;5047743;28;20007;-68
2023/01/19 11:24:57;;;;;;;;;;;;;;;;;;5047623;28;19924;-67
2023/01/19 11:27:23;;;;;;;;;;;;;;;;;;5060664;28;20164;-66
2023/01/19 11:29:48;;;;;;;;;;;;;;;;;;5043614;28;19973;-66
2023/01/19 11:32:14;;;;;;;;;;;;;;;;;;5051598;28;19935;-67
2023/01/19 11:34:40;;;;;;;;;;;;;;;;;;5056826;28;20051;-66
2023/01/19 11:37:06;;;;;;;;;;;;;;;;;;5048240;28;20599;-66
2023/01/19 11:39:32;;;;;;;;;;;;;;;;;;5053851;28;19924;-69
2023/01/19 11:41:58;;;;;;;;;;;;;;;;;;5043774;28;20224;-67
2023/01/19 11:44:24;;;;;;;;;;;;;;;;;;5050909;28;19924;-64
2023/01/19 11:46:50;;;;;;;;;;;;;;;;;;5051585;28;19925;-64
2023/01/19 11:49:16;;;;;;;;;;;;;;;;;;5046112;28;19931;-66
2023/01/19 11:51:41;;;;;;;;;;;;;;;;;;5052742;28;19927;-66
2023/01/19 11:54:07;;;;;;;;;;;;;;;;;;5059743;28;19927;-68
2023/01/19 11:56:33;;;;;;;;;;;;;;;;;;5045927;28;20464;-66
2023/01/19 11:58:59;;;;;;;;;;;;;;;;;;5053541;28;20036;-66
2023/01/19 12:01:25;;;;;;;;;;;;;;;;;;5055037;28;19928;-68
2023/01/19 12:03:51;;;;;;;;;;;;;;;;;;5047658;28;20295;-68
2023/01/19 12:06:17;;;;;;;;;;;;;;;;;;5052673;28;20055;-69
2023/01/19 12:08:43;;;;;;;;;;;;;;;;;;5024944;28;20519;-67
2023/01/19 12:11:09;;;;;;;;;;;;;;;;;;5041619;28;20063;-67
2023/01/19 12:13:34;;;;;;;;;;;;;;;;;;5031937;28;19935;-69
2023/01/19 12:16:00;;;;;;;;;;;;;;;;;;5046856;28;20370;-67
2023/01/19 12:18:26;;;;;;;;;;;;;;;;;;5045390;28;19940;-69
2023/01/19 12:20:52;;;;;;;;;;;;;;;;;;5043341;28;19943;-66
2023/01/19 12:23:18;;;;;;;;;;;;;;;;;;5050495;28;20298;-66
2023/01/19 12:25:44;;;;;;;;;;;;;;;;;;5045493;28;20239;-68
2023/01/19 12:28:10;;;;;;;;;;;;;;;;;;5043914;28;19923;-67
2023/01/19 12:30:36;;;;;;;;;;;;;;;;;;5030322;28;19994;-69
2023/01/19 12:33:01;;;;;;;;;;;;;;;;;;5038023;28;19939;-69
2023/01/19 12:35:28;;;;;;;;;;;;;;;;;;5036209;28;19920;-65
2023/01/19 12:37:54;;;;;;;;;;;;;;;;;;5025168;28;19982;-66
2023/01/19 12:40:19;;;;;;;;;;;;;;;;;;5045803;28;20023;-66
2023/01/19 12:42:45;;;;;;;;;;;;;;;;;;5045427;28;20243;-67
2023/01/19 12:45:11;;;;;;;;;;;;;;;;;;5041827;28;19920;-67
2023/01/19 12:47:37;;;;;;;;;;;;;;;;;;5029132;28;20724;-67
2023/01/19 12:50:05;;;;;;;;;;;;;;;;;;5047335;28;19932;-69
2023/01/19 12:52:34;;;;;;;;;;;;;;;;;;5057810;28;20372;-68
2023/01/19 12:55:00;;;;;;;;;;;;;;;;;;5051507;28;19928;-65
2023/01/19 12:57:27;;;;;;;;;;;;;;;;;;5027397;28;19924;-67
2023/01/19 12:59:52;;;;;;;;;;;;;;;;;;5023063;28;20009;-67
2023/01/19 13:02:18;;;;;;;;;;;;;;;;;;5039049;28;19925;-66
2023/01/19 13:04:44;;;;;;;;;;;;;;;;;;5039238;28;19926;-66
2023/01/19 13:07:12;;;;;;;;;;;;;;;;;;5035834;28;20384;-64
2023/01/19 13:09:38;;;;;;;;;;;;;;;;;;5032637;28;20023;-68
2023/01/19 13:12:04;;;;;;;;;;;;;;;;;;5040779;28;19931;-66
2023/01/19 13:14:30;;;;;;;;;;;;;;;;;;5034331;28;20492;-67
2023/01/19 13:16:56;;;;;;;;;;;;;;;;;;5030678;28;21491;-66
2023/01/19 13:19:22;;;;;;;;;;;;;;;;;;5042686;28;21003;-66
2023/01/19 13:21:48;;;;;;;;;;;;;;;;;;5033621;28;20007;-66
2023/01/19 13:24:14;;;;;;;;;;;;;;;;;;5010910;28;19969;-68
2023/01/19 13:26:40;;;;;;;;;;;;;;;;;;5033543;28;19924;-67
2023/01/19 13:29:06;;;;;;;;;;;;;;;;;;5024487;28;20910;-68
2023/01/19 13:31:32;;;;;;;;;;;;;;;;;;5021960;28;19928;-67
2023/01/19 13:33:57;;;;;;;;;;;;;;;;;;5026745;28;20472;-66
2023/01/19 13:36:25;;;;;;;;;;;;;;;;;;5035189;28;19967;-65
2023/01/19 13:38:51;;;;;;;;;;;;;;;;;;5044600;28;20042;-67
2023/01/19 13:41:17;;;;;;;;;;;;;;;;;;5046594;28;20446;-68
2023/01/19 13:43:43;;;;;;;;;;;;;;;;;;5029026;28;19920;-66
2023/01/19 13:46:08;;;;;;;;;;;;;;;;;;5035959;28;20422;-63
2023/01/19 13:48:34;;;;;;;;;;;;;;;;;;5033443;28;19924;-69
2023/01/19 13:51:00;;;;;;;;;;;;;;;;;;5033103;28;20332;-65
2023/01/19 13:53:26;;;;;;;;;;;;;;;;;;5026197;28;19931;-68
2023/01/19 13:55:52;;;;;;;;;;;;;;;;;;5026716;28;19986;-65
2023/01/19 13:58:18;;;;;;;;;;;;;;;;;;5036237;28;20414;-65
2023/01/19 14:00:44;;;;;;;;;;;;;;;;;;5008233;28;21068;-67
2023/01/19 14:03:10;;;;;;;;;;;;;;;;;;5010389;28;19970;-67
2023/01/19 14:05:35;;;;;;;;;;;;;;;;;;5009270;28;20014;-68
2023/01/19 14:08:02;;;;;;;;;;;;;;;;;;5017493;28;19921;-68
2023/01/19 14:10:30;;;;;;;;;;;;;;;;;;5022878;28;20006;-68
2023/01/19 14:12:55;;;;;;;;;;;;;;;;;;5030510;28;19943;-68
2023/01/19 14:15:21;;;;;;;;;;;;;;;;;;5029987;28;21642;-66
2023/01/19 14:17:47;;;;;;;;;;;;;;;;;;5032800;28;19973;-67
2023/01/19 14:20:13;;;;;;;;;;;;;;;;;;5021217;28;19925;-70
2023/01/19 14:22:39;;;;;;;;;;;;;;;;;;5020587;28;19928;-67
2023/01/19 14:25:05;;;;;;;;;;;;;;;;;;5036130;28;19950;-65
2023/01/19 14:27:31;;;;;;;;;;;;;;;;;;5028621;28;20015;-67
2023/01/19 14:29:56;;;;;;;;;;;;;;;;;;5048932;28;19924;-68
2023/01/19 14:32:22;;;;;;;;;;;;;;;;;;5026499;28;20320;-67
2023/01/19 14:34:49;;;;;;;;;;;;;;;;;;5038068;28;19931;-67
2023/01/19 14:37:15;;;;;;;;;;;;;;;;;;5022978;28;20389;-69
2023/01/19 14:39:40;;;;;;;;;;;;;;;;;;5014997;28;20299;-69
2023/01/19 14:42:06;;;;;;;;;;;;;;;;;;5009468;28;20521;-68
2023/01/19 14:44:32;;;;;;;;;;;;;;;;;;5006355;28;19928;-67
2023/01/19 14:46:58;;;;;;;;;;;;;;;;;;5023053;28;20440;-68
2023/01/19 14:49:24;;;;;;;;;;;;;;;;;;5014530;28;19952;-68
2023/01/19 14:51:50;;;;;;;;;;;;;;;;;;5028629;28;20586;-65
2023/01/19 14:54:16;;;;;;;;;;;;;;;;;;5033271;28;19964;-67
2023/01/19 14:56:42;;;;;;;;;;;;;;;;;;4999538;28;19924;-67
2023/01/19 14:59:07;;;;;;;;;;;;;;;;;;5017493;28;19974;-65
2023/01/19 15:01:33;;;;;;;;;;;;;;;;;;5001074;28;20901;-65
2023/01/19 15:03:59;;;;;;;;;;;;;;;;;;5019476;28;19967;-69
2023/01/19 15:06:25;;;;;;;;;;;;;;;;;;4986253;28;20344;-68
2023/01/19 15:08:52;;;;;;;;;;;;;;;;;;5016438;28;20402;-69
2023/01/19 15:11:20;;;;;;;;;;;;;;;;;;5003108;28;20002;-67
2023/01/19 15:13:45;;;;;;;;;;;;;;;;;;5009657;28;19929;-66
2023/01/19 15:16:11;;;;;;;;;;;;;;;;;;5003808;28;19932;-69
2023/01/19 15:18:37;;;;;;;;;;;;;;;;;;4999889;28;26631;-67
2023/01/19 15:21:03;;;;;;;;;;;;;;;;;;4996755;28;20370;-64
2023/01/19 15:23:29;;;;;;;;;;;;;;;;;;5004229;28;22240;-66
2023/01/19 15:25:55;;;;;;;;;;;;;;;;;;5031525;28;20385;-66
2023/01/19 15:28:21;;;;;;;;;;;;;;;;;;5019507;28;19925;-67
2023/01/19 15:30:47;;;;;;;;;;;;;;;;;;5025789;28;20009;-64
2023/01/19 15:33:12;;;;;;;;;;;;;;;;;;5034272;28;20833;-65
2023/01/19 15:35:38;;;;;;;;;;;;;;;;;;5028547;28;20293;-68
2023/01/19 15:38:04;;;;;;;;;;;;;;;;;;5034502;28;20204;-66
2023/01/19 15:40:30;;;;;;;;;;;;;;;;;;5029276;28;20326;-68
2023/01/19 15:42:56;;;;;;;;;;;;;;;;;;5016534;28;19924;-65
2023/01/19 15:45:22;;;;;;;;;;;;;;;;;;5018146;28;20059;-67
2023/01/19 15:47:48;;;;;;;;;;;;;;;;;;5013264;28;19960;-66
2023/01/19 15:50:13;;;;;;;;;;;;;;;;;;4994453;28;19931;-67
2023/01/19 15:52:39;;;;;;;;;;;;;;;;;;5001717;28;20301;-68
2023/01/19 15:55:05;;;;;;;;;;;;;;;;;;5013672;28;19943;-67
2023/01/19 15:57:33;;;;;;;;;;;;;;;;;;5002002;28;20002;-68
2023/01/19 15:59:59;;;;;;;;;;;;;;;;;;5026796;28;19924;-68
2023/01/19 16:02:25;;;;;;;;;;;;;;;;;;5013644;28;19942;-66
2023/01/19 16:04:51;;;;;;;;;;;;;;;;;;5018955;28;19924;-68
2023/01/19 16:07:18;;;;;;;;;;;;;;;;;;5018987;28;19925;-66
2023/01/19 16:09:44;;;;;;;;;;;;;;;;;;5028410;28;19928;-69
2023/01/19 16:12:09;;;;;;;;;;;;;;;;;;5015522;28;19927;-67
2023/01/19 16:14:35;;;;;;;;;;;;;;;;;;5039964;28;19929;-65
2023/01/19 16:17:01;;;;;;;;;;;;;;;;;;5014189;28;20461;-67
2023/01/19 16:19:27;;;;;;;;;;;;;;;;;;5020645;28;20130;-68
2023/01/19 16:21:53;;;;;;;;;;;;;;;;;;5019390;28;19969;-65
2023/01/19 16:24:19;;;;;;;;;;;;;;;;;;5023805;28;19927;-69
2023/01/19 16:26:45;;;;;;;;;;;;;;;;;;4993445;28;20348;-67
2023/01/19 16:29:10;;;;;;;;;;;;;;;;;;5019338;28;20455;-74
2023/01/19 16:31:36;;;;;;;;;;;;;;;;;;5020313;28;19997;-66
2023/01/19 16:34:02;;;;;;;;;;;;;;;;;;5027093;28;20009;-70
2023/01/19 16:36:28;;;;;;;;;;;;;;;;;;5031879;28;20058;-69
2023/01/19 16:38:54;;;;;;;;;;;;;;;;;;5018490;28;20020;-69
2023/01/19 16:41:20;;;;;;;;;;;;;;;;;;5035249;28;21291;-69
2023/01/19 16:43:46;;;;;;;;;;;;;;;;;;5007676;28;19925;-70
2023/01/19 16:46:12;;;;;;;;;;;;;;;;;;5008313;28;22309;-70
2023/01/19 16:48:38;;;;;;;;;;;;;;;;;;5021229;28;19967;-70